Time;durP1;ratioP1;P1;durP2;ratioP2;P2;SDS_P1;SDS_P2;PMS_P1;PMS_P2;Temp;Humidity;BMP_temperature;BMP_pressure;BME280_temperature;BME280_humidity;BME280_pressure;Samples;Min_cycle;Max_cycle;Signal;HPM_P1;HPM_P2
2020/12/21 00:01:59;;;;;;;1999.90;999.90;;;8.10;99.90;;;;;;5051033;28;20199;-66
2020/12/21 00:04:24;;;;;;;1999.90;999.90;;;8.10;99.90;;;;;;5051100;28;20241;-66
2020/12/21 00:06:57;;;;;;;1999.90;999.90;;;8.00;99.90;;;;;;5051040;28;20492;-66
2020/12/21 00:09:23;;;;;;;1999.90;999.90;;;8.00;99.90;;;;;;5050749;28;20557;-65
2020/12/21 00:11:50;;;;;;;1999.90;999.90;;;8.00;99.90;;;;;;5050810;28;20888;-67
2020/12/21 00:14:16;;;;;;;1999.90;999.90;;;8.00;99.90;;;;;;5050790;28;20426;-67
2020/12/21 00:16:48;;;;;;;1999.90;999.90;;;8.10;99.90;;;;;;5050859;28;20406;-67
2020/12/21 00:19:21;;;;;;;1999.90;999.90;;;8.10;99.90;;;;;;5050544;28;20406;-65
2020/12/21 00:21:48;;;;;;;1999.90;999.90;;;8.10;99.90;;;;;;5050881;28;20919;-65
2020/12/21 00:24:14;;;;;;;1999.90;999.90;;;8.10;99.90;;;;;;5050588;28;20430;-66
2020/12/21 00:26:44;;;;;;;1999.90;999.90;;;8.10;99.90;;;;;;5050865;28;20410;-66
2020/12/21 00:29:10;;;;;;;1999.90;999.90;;;8.10;99.90;;;;;;5050455;28;20195;-66
2020/12/21 00:31:36;;;;;;;1999.90;999.90;;;8.10;99.90;;;;;;5050707;28;20501;-67
2020/12/21 00:34:03;;;;;;;1999.90;999.90;;;8.10;99.90;;;;;;5050614;28;20263;-67
2020/12/21 00:36:29;;;;;;;1999.90;999.90;;;8.10;99.90;;;;;;5050644;28;20229;-66
2020/12/21 00:38:55;;;;;;;1999.90;999.90;;;8.10;99.90;;;;;;5050273;28;20445;-67
2020/12/21 00:41:23;;;;;;;1999.90;999.90;;;8.00;99.90;;;;;;5050707;28;20402;-67
2020/12/21 00:43:49;;;;;;;1999.90;999.90;;;8.10;99.90;;;;;;5050665;28;20426;-66
2020/12/21 00:46:17;;;;;;;1999.90;999.90;;;8.00;99.90;;;;;;5050581;28;20416;-66
2020/12/21 00:48:43;;;;;;;1999.90;999.90;;;8.00;99.90;;;;;;5050213;28;20433;-66
2020/12/21 00:51:11;;;;;;;1999.90;999.90;;;7.90;99.90;;;;;;5050645;28;20639;-66
2020/12/21 00:53:37;;;;;;;1999.90;999.90;;;7.90;99.90;;;;;;5050330;28;20441;-67
2020/12/21 00:56:04;;;;;;;1999.90;999.90;;;7.90;99.90;;;;;;5050621;28;20448;-65
2020/12/21 00:58:32;;;;;;;1999.90;999.90;;;7.90;99.90;;;;;;5050247;28;21030;-66
2020/12/21 01:00:58;;;;;;;1999.90;999.90;;;7.80;99.90;;;;;;5050387;28;20482;-66
2020/12/21 01:03:24;;;;;;;1999.90;999.90;;;7.80;99.90;;;;;;5050365;28;20422;-66
2020/12/21 01:05:49;;;;;;;1999.90;999.90;;;7.80;99.90;;;;;;5050380;28;20489;-67
2020/12/21 01:08:15;;;;;;;1999.90;999.90;;;7.80;99.90;;;;;;5050014;28;20256;-64
2020/12/21 01:10:41;;;;;;;1999.90;999.90;;;7.80;99.90;;;;;;5050575;28;20172;-68
2020/12/21 01:13:07;;;;;;;1999.90;999.90;;;7.70;99.90;;;;;;5053364;28;20229;-66
2020/12/21 01:15:32;;;;;;;1999.90;999.90;;;7.70;99.90;;;;;;5054218;28;20171;-67
2020/12/21 01:17:58;;;;;;;1999.90;999.90;;;7.60;99.90;;;;;;5054196;28;20410;-66
2020/12/21 01:20:24;;;;;;;1999.90;999.90;;;7.60;99.90;;;;;;5053800;28;20176;-67
2020/12/21 01:22:49;;;;;;;1999.90;999.90;;;7.60;99.90;;;;;;5053871;28;20661;-67
2020/12/21 01:25:15;;;;;;;1999.90;999.90;;;7.50;99.90;;;;;;5053968;28;20215;-66
2020/12/21 01:27:41;;;;;;;1999.90;999.90;;;7.40;99.90;;;;;;5053873;28;20577;-66
2020/12/21 01:30:06;;;;;;;1999.90;999.90;;;7.30;99.90;;;;;;5053678;28;20187;-67
2020/12/21 01:32:32;;;;;;;1999.90;999.90;;;7.20;99.90;;;;;;5053727;28;20175;-67
2020/12/21 01:34:57;;;;;;;1999.90;999.90;;;7.00;99.90;;;;;;5053762;28;20168;-66
2020/12/21 01:37:23;;;;;;;1999.90;999.90;;;7.00;99.90;;;;;;5053639;28;20160;-67
2020/12/21 01:39:48;;;;;;;1999.90;999.90;;;7.00;99.90;;;;;;5053480;28;20174;-67
2020/12/21 01:42:18;;;;;;;1999.90;999.90;;;6.90;99.90;;;;;;5053604;28;20183;-67
2020/12/21 01:44:48;;;;;;;1999.90;999.90;;;6.90;99.90;;;;;;5053566;28;20247;-65
2020/12/21 01:47:15;;;;;;;1999.90;999.90;;;6.70;99.90;;;;;;5053589;28;20413;-66
2020/12/21 01:49:40;;;;;;;1999.90;999.90;;;6.70;99.90;;;;;;5053113;28;20779;-67
2020/12/21 01:52:07;;;;;;;1999.90;999.90;;;6.60;99.90;;;;;;5053736;28;20405;-65
2020/12/21 01:54:33;;;;;;;1999.90;999.90;;;6.60;99.90;;;;;;5053200;28;20199;-66
2020/12/21 01:56:59;;;;;;;1999.90;999.90;;;6.60;99.90;;;;;;5053342;28;20488;-66
2020/12/21 01:59:25;;;;;;;1999.90;999.90;;;6.50;99.90;;;;;;5053026;28;20883;-66
2020/12/21 02:01:52;;;;;;;1999.90;999.90;;;6.60;99.90;;;;;;5053247;28;20526;-66
2020/12/21 02:04:18;;;;;;;1999.90;999.90;;;6.60;99.90;;;;;;5053061;28;20418;-66
2020/12/21 02:06:44;;;;;;;1999.90;999.90;;;6.60;99.90;;;;;;5053207;28;20819;-67
2020/12/21 02:09:09;;;;;;;1999.90;999.90;;;6.60;99.90;;;;;;5052881;28;20214;-66
2020/12/21 02:11:42;;;;;;;1999.90;999.90;;;6.60;99.90;;;;;;5053037;28;20892;-66
2020/12/21 02:14:08;;;;;;;1999.90;999.90;;;6.60;99.90;;;;;;5052892;28;20242;-66
2020/12/21 02:16:34;;;;;;;1999.90;999.90;;;6.60;99.90;;;;;;5052990;28;20402;-67
2020/12/21 02:19:00;;;;;;;1999.90;999.90;;;6.60;99.90;;;;;;5052640;28;20927;-66
2020/12/21 02:21:26;;;;;;;1999.90;999.90;;;6.60;99.90;;;;;;5052882;28;20476;-67
2020/12/21 02:23:51;;;;;;;1999.90;999.90;;;6.60;99.90;;;;;;5051668;28;20691;-66
2020/12/21 02:26:17;;;;;;;1999.90;999.90;;;6.60;99.90;;;;;;5052802;28;20699;-67
2020/12/21 02:28:43;;;;;;;1999.90;999.90;;;6.60;99.90;;;;;;5052480;28;20585;-67
2020/12/21 02:31:09;;;;;;;1999.90;999.90;;;6.60;99.90;;;;;;5052718;28;20697;-66
2020/12/21 02:33:34;;;;;;;1999.90;999.90;;;6.60;99.90;;;;;;5052473;28;20509;-67
2020/12/21 02:36:00;;;;;;;1999.90;999.90;;;6.60;99.90;;;;;;5052670;28;20253;-66
2020/12/21 02:38:26;;;;;;;1999.90;999.90;;;6.60;99.90;;;;;;5052443;28;20219;-65
2020/12/21 02:40:52;;;;;;;1999.90;999.90;;;6.60;99.90;;;;;;5052840;28;20167;-65
2020/12/21 02:43:18;;;;;;;1999.90;999.90;;;6.60;99.90;;;;;;5052730;28;20227;-65
2020/12/21 02:45:44;;;;;;;1999.90;999.90;;;6.50;99.90;;;;;;5052657;28;20171;-64
2020/12/21 02:48:10;;;;;;;1999.90;999.90;;;6.50;99.90;;;;;;5052064;28;20446;-65
2020/12/21 02:50:36;;;;;;;1999.90;999.90;;;6.50;99.90;;;;;;5052568;28;20168;-65
2020/12/21 02:53:02;;;;;;;1999.90;999.90;;;6.40;99.90;;;;;;5052123;28;20442;-65
2020/12/21 02:55:27;;;;;;;1999.90;999.90;;;6.30;99.90;;;;;;5052296;28;20172;-65
2020/12/21 02:57:53;;;;;;;1999.90;999.90;;;6.30;99.90;;;;;;5052314;28;20196;-66
2020/12/21 03:00:18;;;;;;;1999.90;999.90;;;6.20;99.90;;;;;;5052039;28;20164;-66
2020/12/21 03:02:44;;;;;;;1999.90;999.90;;;6.30;99.90;;;;;;5052284;28;20194;-65
2020/12/21 03:05:10;;;;;;;1999.90;999.90;;;6.30;99.90;;;;;;5052383;28;20168;-65
2020/12/21 03:07:36;;;;;;;1999.90;999.90;;;6.30;99.90;;;;;;5051930;28;20172;-65
2020/12/21 03:10:02;;;;;;;1999.90;999.90;;;6.30;99.90;;;;;;5051736;28;20460;-66
2020/12/21 03:12:29;;;;;;;1999.90;999.90;;;6.20;99.90;;;;;;5051790;28;20634;-65
2020/12/21 03:14:54;;;;;;;1999.90;999.90;;;6.20;99.90;;;;;;5051989;28;20414;-65
2020/12/21 03:17:20;;;;;;;1999.90;999.90;;;6.30;99.90;;;;;;5051783;28;20394;-66
2020/12/21 03:19:46;;;;;;;1999.90;999.90;;;6.30;99.90;;;;;;5051551;28;20246;-65
2020/12/21 03:22:12;;;;;;;1999.90;999.90;;;6.40;99.90;;;;;;5051718;28;20647;-66
2020/12/21 03:24:38;;;;;;;1999.90;999.90;;;6.40;99.90;;;;;;5051659;28;20184;-65
2020/12/21 03:27:04;;;;;;;1999.90;999.90;;;6.40;99.90;;;;;;5051575;28;20406;-66
2020/12/21 03:29:29;;;;;;;1999.90;999.90;;;6.40;99.90;;;;;;5051317;28;20864;-65
2020/12/21 03:31:55;;;;;;;1999.90;999.90;;;6.50;99.90;;;;;;5051619;28;20170;-65
2020/12/21 03:34:20;;;;;;;1999.90;999.90;;;6.50;99.90;;;;;;5051124;28;20266;-65
2020/12/21 03:36:46;;;;;;;1999.90;999.90;;;6.40;99.90;;;;;;5051406;28;20198;-66
2020/12/21 03:39:12;;;;;;;1999.90;999.90;;;6.40;99.90;;;;;;5051186;28;20164;-66
2020/12/21 03:41:38;;;;;;;1999.90;999.90;;;6.40;99.90;;;;;;5051470;28;20998;-65
2020/12/21 03:44:04;;;;;;;1999.90;999.90;;;6.30;99.90;;;;;;5051227;28;20241;-66
2020/12/21 03:46:29;;;;;;;1999.90;999.90;;;6.20;99.90;;;;;;5051274;28;20406;-65
2020/12/21 03:48:55;;;;;;;1999.90;999.90;;;6.20;99.90;;;;;;5050960;28;20191;-66
2020/12/21 03:51:21;;;;;;;1999.90;999.90;;;6.10;99.90;;;;;;5051390;28;20195;-65
2020/12/21 03:53:47;;;;;;;1999.90;999.90;;;6.20;99.90;;;;;;5051094;28;20863;-65
2020/12/21 03:56:13;;;;;;;1999.90;999.90;;;6.10;99.90;;;;;;5051148;28;20638;-65
2020/12/21 03:58:38;;;;;;;1999.90;999.90;;;6.10;99.90;;;;;;5050998;28;20179;-66
2020/12/21 04:01:04;;;;;;;1999.90;999.90;;;6.10;99.90;;;;;;5050958;28;20176;-65
2020/12/21 04:03:30;;;;;;;1999.90;999.90;;;6.00;99.90;;;;;;5050982;28;20668;-65
2020/12/21 04:05:56;;;;;;;1999.90;999.90;;;6.00;99.90;;;;;;5051015;28;20164;-65
2020/12/21 04:08:22;;;;;;;1999.90;999.90;;;5.90;99.90;;;;;;5050781;28;20454;-66
2020/12/21 04:10:48;;;;;;;1999.90;999.90;;;5.90;99.90;;;;;;5050978;28;20478;-65
2020/12/21 04:13:15;;;;;;;1999.90;999.90;;;5.80;99.90;;;;;;5050954;28;20434;-65
2020/12/21 04:15:41;;;;;;;1999.90;999.90;;;5.80;99.90;;;;;;5050927;28;20441;-65
2020/12/21 04:18:06;;;;;;;1999.90;999.90;;;5.80;99.90;;;;;;5050718;28;20419;-65
2020/12/21 04:20:33;;;;;;;1999.90;999.90;;;5.80;99.90;;;;;;5050762;28;20411;-66
2020/12/21 04:22:59;;;;;;;1999.90;999.90;;;5.80;99.90;;;;;;5050818;28;20198;-65
2020/12/21 04:25:25;;;;;;;1999.90;999.90;;;5.80;99.90;;;;;;5050879;28;20417;-66
2020/12/21 04:27:50;;;;;;;1999.90;999.90;;;5.90;99.90;;;;;;5050868;28;20454;-65
2020/12/21 04:30:17;;;;;;;1999.90;999.90;;;5.80;99.90;;;;;;5050716;28;20831;-66
2020/12/21 04:32:42;;;;;;;1999.90;999.90;;;5.80;99.90;;;;;;5050660;28;20692;-66
2020/12/21 04:35:08;;;;;;;1999.90;999.90;;;5.90;99.90;;;;;;5050606;28;20498;-65
2020/12/21 04:37:34;;;;;;;1999.90;999.90;;;5.80;99.90;;;;;;5050661;28;20178;-65
2020/12/21 04:40:00;;;;;;;1999.90;999.90;;;5.70;99.90;;;;;;5050562;28;20233;-66
2020/12/21 04:42:25;;;;;;;1999.90;999.90;;;5.70;99.90;;;;;;5050790;28;20402;-66
2020/12/21 04:44:52;;;;;;;1999.90;999.90;;;5.70;99.90;;;;;;5050899;28;20206;-66
2020/12/21 04:47:18;;;;;;;1999.90;999.90;;;5.70;99.90;;;;;;5052472;28;20175;-65
2020/12/21 04:49:45;;;;;;;1999.90;999.90;;;5.70;99.90;;;;;;5054350;28;20823;-66
2020/12/21 04:52:11;;;;;;;1999.90;999.90;;;5.70;99.90;;;;;;5054646;28;20433;-65
2020/12/21 04:54:37;;;;;;;1999.90;999.90;;;5.70;99.90;;;;;;5054432;28;20495;-67
2020/12/21 04:57:03;;;;;;;1999.90;999.90;;;5.70;99.90;;;;;;5054461;28;20405;-66
2020/12/21 04:59:29;;;;;;;1999.90;999.90;;;5.80;99.90;;;;;;5054309;28;20180;-66
2020/12/21 05:01:55;;;;;;;1999.90;999.90;;;5.80;99.90;;;;;;5054352;28;20179;-66
2020/12/21 05:04:24;;;;;;;1999.90;999.90;;;5.80;99.90;;;;;;5054234;28;20196;-66
2020/12/21 05:06:56;;;;;;;1999.90;999.90;;;5.90;99.90;;;;;;5054326;28;20879;-67
2020/12/21 05:09:26;;;;;;;1999.90;999.90;;;5.90;99.90;;;;;;5054035;28;20823;-66
2020/12/21 05:12:07;;;;;;;1999.90;999.90;;;5.90;99.90;;;;;;5054215;28;20408;-66
2020/12/21 05:14:35;;;;;;;1999.90;999.90;;;5.80;99.90;;;;;;5054265;28;20422;-66
2020/12/21 05:17:10;;;;;;;1999.90;999.90;;;5.80;99.90;;;;;;5054325;28;21082;-66
2020/12/21 05:19:35;;;;;;;1999.90;999.90;;;5.80;99.90;;;;;;5053877;28;20410;-66
2020/12/21 05:22:01;;;;;;;1999.90;999.90;;;5.80;99.90;;;;;;5054077;28;20418;-66
2020/12/21 05:24:27;;;;;;;1999.90;999.90;;;5.80;99.90;;;;;;5053851;28;20596;-66
2020/12/21 05:26:52;;;;;;;1999.90;999.90;;;5.80;99.90;;;;;;5053997;28;20182;-66
2020/12/21 05:29:28;;;;;;;1999.90;999.90;;;5.90;99.90;;;;;;5053596;28;20195;-67
2020/12/21 05:31:53;;;;;;;1999.90;999.90;;;5.90;99.90;;;;;;5053971;28;20175;-65
2020/12/21 05:34:28;;;;;;;1999.90;999.90;;;6.00;99.90;;;;;;5053638;28;20430;-66
2020/12/21 05:36:54;;;;;;;1999.90;999.90;;;5.90;99.90;;;;;;5053644;28;20168;-66
2020/12/21 05:39:20;;;;;;;1999.90;999.90;;;6.00;99.90;;;;;;5054006;28;20406;-66
2020/12/21 05:41:46;;;;;;;1999.90;999.90;;;6.10;99.90;;;;;;5053771;28;20259;-67
2020/12/21 05:44:11;;;;;;;1999.90;999.90;;;6.20;99.90;;;;;;5053555;28;20508;-66
2020/12/21 05:46:37;;;;;;;1999.90;999.90;;;6.10;99.90;;;;;;5053585;28;20445;-66
2020/12/21 05:49:03;;;;;;;1999.90;999.90;;;6.00;99.90;;;;;;5053155;28;20579;-65
2020/12/21 05:51:33;;;;;;;1999.90;999.90;;;6.10;99.90;;;;;;5053391;28;20179;-66
2020/12/21 05:54:01;;;;;;;1999.90;999.90;;;6.20;99.90;;;;;;5053314;28;20199;-66
2020/12/21 05:56:29;;;;;;;1999.90;999.90;;;6.20;99.90;;;;;;5053670;28;20409;-66
2020/12/21 05:58:56;;;;;;;1999.90;999.90;;;6.10;99.90;;;;;;5053071;28;20413;-67
2020/12/21 06:01:22;;;;;;;1999.90;999.90;;;6.20;99.90;;;;;;5053399;28;20418;-65
2020/12/21 06:03:50;;;;;;;1999.90;999.90;;;6.20;99.90;;;;;;5053138;28;20437;-66
2020/12/21 06:06:17;;;;;;;1999.90;999.90;;;6.30;99.90;;;;;;5053425;28;20471;-66
2020/12/21 06:08:44;;;;;;;1999.90;999.90;;;6.40;99.90;;;;;;5052960;28;20449;-65
2020/12/21 06:11:14;;;;;;;1999.90;999.90;;;6.40;99.90;;;;;;5053279;28;20402;-66
2020/12/21 06:13:44;;;;;;;1999.90;999.90;;;6.40;99.90;;;;;;5053277;28;20418;-66
2020/12/21 06:16:11;;;;;;;1999.90;999.90;;;6.50;99.90;;;;;;5053014;28;20414;-66
2020/12/21 06:18:37;;;;;;;1999.90;999.90;;;6.50;99.90;;;;;;5053012;28;21179;-66
2020/12/21 06:21:03;;;;;;;1999.90;999.90;;;6.50;99.90;;;;;;5053202;28;20412;-66
2020/12/21 06:23:32;;;;;;;1999.90;999.90;;;6.50;99.90;;;;;;5053017;28;20206;-67
2020/12/21 06:26:11;;;;;;;1999.90;999.90;;;6.50;99.90;;;;;;5053252;28;20463;-66
2020/12/21 06:28:38;;;;;;;1999.90;999.90;;;6.60;99.90;;;;;;5052761;28;20501;-66
2020/12/21 06:31:18;;;;;;;1999.90;999.90;;;6.60;99.90;;;;;;5052944;28;20402;-66
2020/12/21 06:33:45;;;;;;;1999.90;999.90;;;6.60;99.90;;;;;;5052657;28;20501;-65
2020/12/21 06:36:12;;;;;;;1999.90;999.90;;;6.60;99.90;;;;;;5052652;28;20430;-66
2020/12/21 06:38:45;;;;;;;1999.90;999.90;;;6.70;99.90;;;;;;5052280;28;20413;-65
2020/12/21 06:41:19;;;;;;;1999.90;999.90;;;6.70;99.90;;;;;;5052572;28;20485;-67
2020/12/21 06:44:02;;;;;;;1999.90;999.90;;;6.80;99.90;;;;;;5052471;28;20908;-67
2020/12/21 06:46:31;;;;;;;1999.90;999.90;;;6.80;99.90;;;;;;5052472;28;20402;-67
2020/12/21 06:49:07;;;;;;;1999.90;999.90;;;6.80;99.90;;;;;;5052036;28;20454;-65
2020/12/21 06:51:35;;;;;;;1999.90;999.90;;;6.80;99.90;;;;;;5052307;28;20405;-66
2020/12/21 06:54:05;;;;;;;1999.90;999.90;;;6.80;99.90;;;;;;5052125;28;20446;-67
2020/12/21 06:56:31;;;;;;;1999.90;999.90;;;6.80;99.90;;;;;;5052241;28;20803;-65
2020/12/21 06:58:58;;;;;;;1999.90;999.90;;;6.80;99.90;;;;;;5051965;28;20410;-66
2020/12/21 07:01:28;;;;;;;1999.90;999.90;;;6.90;99.90;;;;;;5052188;28;20467;-67
2020/12/21 07:03:55;;;;;;;1999.90;999.90;;;6.90;99.90;;;;;;5052190;28;20441;-65
2020/12/21 07:06:21;;;;;;;1999.90;999.90;;;7.00;99.90;;;;;;5052016;28;20916;-65
2020/12/21 07:08:49;;;;;;;1999.90;999.90;;;7.00;99.90;;;;;;5051469;28;20446;-65
2020/12/21 07:11:22;;;;;;;1999.90;999.90;;;7.00;99.90;;;;;;5051712;28;20394;-65
2020/12/21 07:13:51;;;;;;;1999.90;999.90;;;7.00;99.90;;;;;;5051808;28;20552;-66
2020/12/21 07:16:18;;;;;;;1999.90;999.90;;;7.00;99.90;;;;;;5051854;28;20410;-65
2020/12/21 07:18:44;;;;;;;1999.90;999.90;;;7.10;99.90;;;;;;5051586;28;20983;-67
2020/12/21 07:21:10;;;;;;;1999.90;999.90;;;7.10;99.90;;;;;;5051693;28;20414;-65
2020/12/21 07:23:37;;;;;;;1999.90;999.90;;;7.20;99.90;;;;;;5051690;28;20426;-66
2020/12/21 07:26:03;;;;;;;1999.90;999.90;;;7.20;99.90;;;;;;5051672;28;20433;-66
2020/12/21 07:28:29;;;;;;;1999.90;999.90;;;7.20;99.90;;;;;;5051423;28;20489;-65
2020/12/21 07:31:18;;;;;;;1999.90;999.90;;;7.20;99.90;;;;;;5051631;28;20485;-66
2020/12/21 07:34:02;;;;;;;1999.90;999.90;;;7.30;99.90;;;;;;5051579;28;20434;-66
2020/12/21 07:36:37;;;;;;;1999.90;999.90;;;7.30;99.90;;;;;;5051655;28;20403;-65
2020/12/21 07:39:14;;;;;;;1999.90;999.90;;;7.30;99.90;;;;;;5051629;28;20520;-64
2020/12/21 07:41:45;;;;;;;1999.90;999.90;;;7.30;99.90;;;;;;5051647;28;20398;-65
2020/12/21 07:44:13;;;;;;;1999.90;999.90;;;7.40;99.90;;;;;;5051717;28;20532;-66
2020/12/21 07:46:51;;;;;;;1999.90;999.90;;;7.40;99.90;;;;;;5051459;28;20418;-65
2020/12/21 07:49:18;;;;;;;1999.90;999.90;;;7.40;99.90;;;;;;5051039;28;21152;-66
2020/12/21 07:51:44;;;;;;;1999.90;999.90;;;7.50;99.90;;;;;;5051376;28;20891;-66
2020/12/21 07:54:13;;;;;;;1999.90;999.90;;;7.50;99.90;;;;;;5051275;28;20446;-66
2020/12/21 07:56:38;;;;;;;1999.90;999.90;;;7.50;99.90;;;;;;5051281;28;20414;-67
2020/12/21 07:59:17;;;;;;;1999.90;999.90;;;7.50;99.90;;;;;;5051120;28;20417;-66
2020/12/21 08:01:44;;;;;;;1999.90;999.90;;;7.60;99.90;;;;;;5051185;28;20569;-66
2020/12/21 08:04:18;;;;;;;1999.90;999.90;;;7.60;99.90;;;;;;5051131;28;20518;-66
2020/12/21 08:06:47;;;;;;;1999.90;999.90;;;7.60;99.90;;;;;;5051079;28;20416;-66
2020/12/21 08:09:13;;;;;;;1999.90;999.90;;;7.60;99.90;;;;;;5050719;28;20465;-65
2020/12/21 08:11:39;;;;;;;1999.90;999.90;;;7.60;99.90;;;;;;5051149;28;20814;-66
2020/12/21 08:14:08;;;;;;;1999.90;999.90;;;7.60;99.90;;;;;;5050826;28;20450;-67
2020/12/21 08:16:34;;;;;;;1999.90;999.90;;;7.70;99.90;;;;;;5050972;28;20498;-66
2020/12/21 08:19:00;;;;;;;1999.90;999.90;;;7.70;99.90;;;;;;5050565;28;20409;-66
2020/12/21 08:21:29;;;;;;;1999.90;999.90;;;7.80;99.90;;;;;;5049883;28;20489;-67
2020/12/21 08:23:58;;;;;;;1999.90;999.90;;;7.80;99.90;;;;;;5050836;28;20484;-66
2020/12/21 08:26:25;;;;;;;1999.90;999.90;;;7.80;99.90;;;;;;5050845;28;20402;-66
2020/12/21 08:28:52;;;;;;;1999.90;999.90;;;7.80;99.90;;;;;;5050410;28;20548;-66
2020/12/21 08:31:20;;;;;;;1999.90;999.90;;;7.80;99.90;;;;;;5050755;28;20896;-66
2020/12/21 08:34:14;;;;;;;1999.90;999.90;;;7.90;99.90;;;;;;5050493;28;20418;-66
2020/12/21 08:36:40;;;;;;;1999.90;999.90;;;7.90;99.90;;;;;;5049138;28;20446;-66
2020/12/21 08:39:19;;;;;;;1999.90;999.90;;;7.90;99.90;;;;;;5050535;28;20434;-67
2020/12/21 08:41:50;;;;;;;1999.90;999.90;;;7.90;99.90;;;;;;5050733;28;20167;-67
2020/12/21 08:44:20;;;;;;;1999.90;999.90;;;7.90;99.90;;;;;;5050674;28;20433;-65
2020/12/21 08:46:51;;;;;;;1999.90;999.90;;;7.90;99.90;;;;;;5051333;28;20421;-67
2020/12/21 08:49:17;;;;;;;1999.90;999.90;;;8.00;99.90;;;;;;5050294;28;21149;-67
2020/12/21 08:51:42;;;;;;;1999.90;999.90;;;8.00;99.90;;;;;;5050517;28;20417;-67
2020/12/21 08:54:08;;;;;;;1999.90;999.90;;;8.10;99.90;;;;;;5049778;28;21046;-65
2020/12/21 08:56:33;;;;;;;1999.90;999.90;;;8.10;99.90;;;;;;5049803;28;20190;-67
2020/12/21 08:58:59;;;;;;;1999.90;999.90;;;8.20;99.90;;;;;;5049329;28;20625;-67
2020/12/21 09:01:25;;;;;;;1999.90;999.90;;;8.20;99.90;;;;;;5049594;28;20179;-66
2020/12/21 09:03:50;;;;;;;1999.90;999.90;;;8.20;99.90;;;;;;5049546;28;20196;-66
2020/12/21 09:06:17;;;;;;;1999.90;999.90;;;8.20;99.90;;;;;;5049632;28;20814;-67
2020/12/21 09:08:43;;;;;;;1999.90;999.90;;;8.30;99.90;;;;;;5049200;28;20219;-66
2020/12/21 09:11:08;;;;;;;1999.90;999.90;;;8.30;99.90;;;;;;5049513;28;20434;-65
2020/12/21 09:13:34;;;;;;;1999.90;999.90;;;8.40;99.90;;;;;;5049274;28;20179;-67
2020/12/21 09:16:01;;;;;;;1999.90;999.90;;;8.50;99.90;;;;;;5049529;28;20195;-67
2020/12/21 09:18:26;;;;;;;1999.90;999.90;;;8.50;99.90;;;;;;5049388;28;20219;-67
2020/12/21 09:20:52;;;;;;;1999.90;999.90;;;8.50;99.90;;;;;;5049331;28;21105;-66
2020/12/21 09:23:18;;;;;;;1999.90;999.90;;;8.60;99.90;;;;;;5049317;28;20195;-67
2020/12/21 09:25:43;;;;;;;1999.90;999.90;;;8.60;99.90;;;;;;5049250;28;20172;-67
2020/12/21 09:28:09;;;;;;;1999.90;999.90;;;8.60;99.90;;;;;;5048944;28;20679;-67
2020/12/21 09:30:35;;;;;;;1999.90;999.90;;;8.60;99.90;;;;;;5049336;28;20171;-65
2020/12/21 09:33:01;;;;;;;1999.90;999.90;;;8.60;99.90;;;;;;5050651;28;20188;-65
2020/12/21 09:35:27;;;;;;;1999.90;999.90;;;8.60;99.90;;;;;;5052728;28;20172;-66
2020/12/21 09:37:53;;;;;;;1999.90;999.90;;;8.70;99.90;;;;;;5052545;28;20449;-66
2020/12/21 09:40:19;;;;;;;1999.90;999.90;;;8.70;99.90;;;;;;5052255;28;20441;-67
2020/12/21 09:42:45;;;;;;;1999.90;999.90;;;8.70;99.90;;;;;;5049753;28;20195;-66
2020/12/21 09:45:11;;;;;;;1999.90;999.90;;;8.70;99.90;;;;;;5051725;28;20417;-63
2020/12/21 09:47:36;;;;;;;1999.90;999.90;;;8.70;99.90;;;;;;5051490;28;20626;-66
2020/12/21 09:50:02;;;;;;;1999.90;999.90;;;8.80;99.90;;;;;;5051293;28;20171;-67
2020/12/21 09:52:28;;;;;;;1999.90;999.90;;;8.90;99.90;;;;;;5030589;28;591955;-67
2020/12/21 09:54:54;;;;;;;1999.90;999.90;;;8.90;99.90;;;;;;5052695;28;20410;-67
2020/12/21 09:57:19;;;;;;;1999.90;999.90;;;8.90;99.90;;;;;;5052244;28;20602;-65
2020/12/21 09:59:45;;;;;;;1999.90;999.90;;;9.00;99.90;;;;;;5054372;28;20172;-65
2020/12/21 10:02:10;;;;;;;1999.90;999.90;;;9.00;99.90;;;;;;5054172;28;20164;-65
2020/12/21 10:04:36;;;;;;;1999.90;999.90;;;9.00;99.90;;;;;;5053730;28;20188;-64
2020/12/21 10:07:02;;;;;;;1999.90;999.90;;;9.00;99.90;;;;;;5052393;28;20164;-64
2020/12/21 10:09:27;;;;;;;1999.90;999.90;;;9.10;99.90;;;;;;5051992;28;20211;-65
2020/12/21 10:11:53;;;;;;;1999.90;999.90;;;9.10;99.90;;;;;;5049167;28;20174;-63
2020/12/21 10:14:19;;;;;;;1999.90;999.90;;;9.10;99.90;;;;;;5050916;28;20246;-63
2020/12/21 10:16:44;;;;;;;1999.90;999.90;;;9.10;99.90;;;;;;5051240;28;20172;-65
2020/12/21 10:19:10;;;;;;;1999.90;999.90;;;9.10;99.90;;;;;;5052121;28;20215;-64
2020/12/21 10:21:36;;;;;;;1999.90;999.90;;;9.10;99.90;;;;;;5051821;28;20195;-63
2020/12/21 10:24:01;;;;;;;1999.90;999.90;;;9.10;99.90;;;;;;5051212;28;20204;-64
2020/12/21 10:26:27;;;;;;;1999.90;999.90;;;9.10;99.90;;;;;;5051274;28;20589;-65
2020/12/21 10:28:53;;;;;;;1999.90;999.90;;;9.10;99.90;;;;;;5050833;28;20203;-64
2020/12/21 10:31:18;;;;;;;1999.90;999.90;;;9.10;99.90;;;;;;5051133;28;20250;-65
2020/12/21 10:33:44;;;;;;;1999.90;999.90;;;9.10;99.90;;;;;;5050526;28;20188;-64
2020/12/21 10:36:18;;;;;;;1999.90;999.90;;;9.10;99.90;;;;;;5050934;28;20171;-64
2020/12/21 10:38:44;;;;;;;1999.90;999.90;;;9.10;99.90;;;;;;5050733;28;20175;-64
2020/12/21 10:41:09;;;;;;;1999.90;999.90;;;9.20;99.90;;;;;;5050688;28;20475;-64
2020/12/21 10:43:35;;;;;;;1999.90;999.90;;;9.20;99.90;;;;;;5050382;28;20578;-65
2020/12/21 10:46:01;;;;;;;1999.90;999.90;;;9.20;99.90;;;;;;5050504;28;20184;-64
2020/12/21 10:48:26;;;;;;;1999.90;999.90;;;9.30;99.90;;;;;;5050201;28;20602;-66
2020/12/21 10:50:54;;;;;;;1999.90;999.90;;;9.30;99.90;;;;;;5050837;28;20165;-64
2020/12/21 10:53:20;;;;;;;1999.90;999.90;;;9.30;99.90;;;;;;5050355;28;20218;-65
2020/12/21 10:55:46;;;;;;;1999.90;999.90;;;9.30;99.90;;;;;;5050035;28;20433;-64
2020/12/21 10:58:11;;;;;;;1999.90;999.90;;;9.30;99.90;;;;;;5050270;28;20468;-64
2020/12/21 11:00:37;;;;;;;1999.90;999.90;;;9.30;99.90;;;;;;5050388;28;20172;-65
2020/12/21 11:03:03;;;;;;;1999.90;999.90;;;9.40;99.90;;;;;;5050036;28;20226;-64
2020/12/21 11:05:28;;;;;;;1999.90;999.90;;;9.30;99.90;;;;;;5050553;28;20180;-65
2020/12/21 11:07:54;;;;;;;1999.90;999.90;;;9.40;99.90;;;;;;5050211;28;20221;-65
2020/12/21 11:10:19;;;;;;;1999.90;999.90;;;9.40;99.90;;;;;;5049310;28;20237;-64
2020/12/21 11:12:45;;;;;;;1999.90;999.90;;;9.40;99.90;;;;;;5049870;28;20191;-67
2020/12/21 11:15:11;;;;;;;1999.90;999.90;;;9.50;99.90;;;;;;5050505;28;20323;-65
2020/12/21 11:17:36;;;;;;;1999.90;999.90;;;9.50;99.90;;;;;;5049457;28;20159;-62
2020/12/21 11:20:03;;;;;;;1999.90;999.90;;;9.60;99.90;;;;;;5049966;28;20263;-65
2020/12/21 11:22:28;;;;;;;1999.90;999.90;;;9.50;99.90;;;;;;5050158;28;20260;-64
2020/12/21 11:24:54;;;;;;;1999.90;999.90;;;9.60;99.90;;;;;;5049632;28;21205;-65
2020/12/21 11:27:21;;;;;;;1999.90;999.90;;;9.60;99.90;;;;;;5049878;28;20546;-64
2020/12/21 11:29:46;;;;;;;1999.90;999.90;;;9.60;99.90;;;;;;5049378;28;20546;-65
2020/12/21 11:32:12;;;;;;;1999.90;999.90;;;9.60;99.90;;;;;;5049450;28;20518;-63
2020/12/21 11:34:38;;;;;;;1999.90;999.90;;;9.60;99.90;;;;;;5049974;28;20205;-64
2020/12/21 11:37:03;;;;;;;1999.90;999.90;;;9.60;99.90;;;;;;5049490;28;20221;-64
2020/12/21 11:39:29;;;;;;;1999.90;999.90;;;9.60;99.90;;;;;;5048963;28;20176;-63
2020/12/21 11:41:54;;;;;;;1999.90;999.90;;;9.60;99.90;;;;;;5049454;28;20254;-64
2020/12/21 11:44:20;;;;;;;1999.90;999.90;;;9.60;99.90;;;;;;5049807;28;20199;-64
2020/12/21 11:46:46;;;;;;;1999.90;999.90;;;9.70;99.90;;;;;;5049715;28;20162;-63
2020/12/21 11:49:12;;;;;;;1999.90;999.90;;;9.70;99.90;;;;;;5049095;28;20203;-68
2020/12/21 11:51:38;;;;;;;1999.90;999.90;;;9.70;99.90;;;;;;5049406;28;20411;-65
2020/12/21 11:54:03;;;;;;;1999.90;999.90;;;9.70;99.90;;;;;;5049367;28;20570;-63
2020/12/21 11:56:29;;;;;;;1999.90;999.90;;;9.80;99.90;;;;;;5048744;28;20398;-68
2020/12/21 11:58:55;;;;;;;1999.90;999.90;;;9.80;99.90;;;;;;5048467;28;20177;-63
2020/12/21 12:01:20;;;;;;;1999.90;999.90;;;9.80;99.90;;;;;;5049444;28;20591;-64
2020/12/21 12:03:46;;;;;;;1999.90;999.90;;;9.70;99.90;;;;;;5049016;28;20202;-64
2020/12/21 12:06:12;;;;;;;1999.90;999.90;;;9.80;99.90;;;;;;5049411;28;20174;-65
2020/12/21 12:08:38;;;;;;;1999.90;999.90;;;9.80;99.90;;;;;;5048929;28;20198;-64